Tewksbury, Massachusetts
Current Conditions -  °F | °C
As of 3:54 PM on Tuesday 21 Oct 2014 (Local Time) from KLWM Reporting Station
Overcast Overcast  
Wind Chill: 59°   Ceiling: 8500
Heat Index: 59°   Visibility: 10mi
Dew Point: 54°   Wind: 6mph
Humidity: 83%   Direction: 100°E
Pressure: 29.93"   Gusts: NA
Location:  42.61°N, 71.23°W
Report Text: KLWM 211954Z 10005KT 10SM FEW032 BKN085 OVC100 15/12 A2993 RMK AO2 RAB03E33 SLP137 P0000 T01500122
Loading
Personal Weather Stations






























Interactive Weather Map
Tropical Storm Tracking
New forecast layout! Learn more

10-Day Weather Forecast

Advertisements
Track Severe Weather on mobile